sensor_id;sensor_type;location;lat;lon;timestamp;pressure;altitude;pressure_sealevel;temperature;humidity
50636;BME280;36598;46.054;11.130;2022-09-23T00:02:16;99739.56;;;16.00;56.57
50636;BME280;36598;46.054;11.130;2022-09-23T00:04:42;99741.88;;;15.89;56.75
50636;BME280;36598;46.054;11.130;2022-09-23T00:07:07;99732.66;;;16.05;55.50
50636;BME280;36598;46.054;11.130;2022-09-23T00:09:33;99733.06;;;15.74;56.50
50636;BME280;36598;46.054;11.130;2022-09-23T00:11:58;99731.75;;;15.78;56.35
50636;BME280;36598;46.054;11.130;2022-09-23T00:14:24;99730.00;;;15.85;56.51
50636;BME280;36598;46.054;11.130;2022-09-23T00:16:49;99722.59;;;15.78;56.79
50636;BME280;36598;46.054;11.130;2022-09-23T00:19:14;99732.19;;;15.77;57.64
50636;BME280;36598;46.054;11.130;2022-09-23T00:21:39;99734.63;;;15.91;58.24
50636;BME280;36598;46.054;11.130;2022-09-23T00:24:06;99737.09;;;16.18;57.24
50636;BME280;36598;46.054;11.130;2022-09-23T00:26:32;99725.44;;;16.07;58.17
50636;BME280;36598;46.054;11.130;2022-09-23T00:28:57;99727.78;;;16.09;58.07
50636;BME280;36598;46.054;11.130;2022-09-23T00:31:23;99724.22;;;15.92;57.93
50636;BME280;36598;46.054;11.130;2022-09-23T00:33:56;99730.09;;;15.81;57.48
50636;BME280;36598;46.054;11.130;2022-09-23T00:36:21;99728.50;;;15.96;57.45
50636;BME280;36598;46.054;11.130;2022-09-23T00:38:46;99735.59;;;15.85;57.87
50636;BME280;36598;46.054;11.130;2022-09-23T00:41:12;99730.66;;;16.05;56.86
50636;BME280;36598;46.054;11.130;2022-09-23T00:43:41;99729.78;;;16.08;57.31
50636;BME280;36598;46.054;11.130;2022-09-23T00:46:08;99728.94;;;15.95;58.18
50636;BME280;36598;46.054;11.130;2022-09-23T00:48:33;99720.31;;;15.89;58.37
50636;BME280;36598;46.054;11.130;2022-09-23T00:50:59;99713.59;;;16.03;58.02
50636;BME280;36598;46.054;11.130;2022-09-23T00:53:25;99709.47;;;16.08;57.72
50636;BME280;36598;46.054;11.130;2022-09-23T00:55:53;99708.25;;;16.09;57.99
50636;BME280;36598;46.054;11.130;2022-09-23T00:58:24;99713.44;;;15.94;58.56
50636;BME280;36598;46.054;11.130;2022-09-23T01:00:51;99712.50;;;16.13;57.87
50636;BME280;36598;46.054;11.130;2022-09-23T01:03:17;99710.81;;;15.87;57.56
50636;BME280;36598;46.054;11.130;2022-09-23T01:05:43;99710.13;;;15.83;57.51
50636;BME280;36598;46.054;11.130;2022-09-23T01:08:09;99713.44;;;15.94;58.09
50636;BME280;36598;46.054;11.130;2022-09-23T01:10:50;99707.31;;;15.99;58.59
50636;BME280;36598;46.054;11.130;2022-09-23T01:13:23;99710.34;;;16.05;58.31
50636;BME280;36598;46.054;11.130;2022-09-23T01:16:00;99702.56;;;16.12;58.00
50636;BME280;36598;46.054;11.130;2022-09-23T01:21:01;99702.25;;;15.94;57.65
50636;BME280;36598;46.054;11.130;2022-09-23T01:28:44;99695.47;;;15.78;57.81
50636;BME280;36598;46.054;11.130;2022-09-23T01:31:21;99695.94;;;15.77;58.38
50636;BME280;36598;46.054;11.130;2022-09-23T01:33:51;99705.31;;;15.83;58.26
50636;BME280;36598;46.054;11.130;2022-09-23T01:39:02;99698.25;;;15.95;57.59
50636;BME280;36598;46.054;11.130;2022-09-23T01:46:25;99690.44;;;15.73;58.36
50636;BME280;36598;46.054;11.130;2022-09-23T01:49:02;99697.06;;;15.63;58.91
50636;BME280;36598;46.054;11.130;2022-09-23T01:51:38;99690.34;;;15.44;59.32
50636;BME280;36598;46.054;11.130;2022-09-23T01:54:10;99692.34;;;15.44;59.36
50636;BME280;36598;46.054;11.130;2022-09-23T01:56:41;99687.53;;;15.61;58.77
50636;BME280;36598;46.054;11.130;2022-09-23T02:01:37;99692.50;;;15.53;60.02
50636;BME280;36598;46.054;11.130;2022-09-23T02:04:05;99687.91;;;15.46;60.18
50636;BME280;36598;46.054;11.130;2022-09-23T02:06:38;99683.38;;;15.69;59.38
50636;BME280;36598;46.054;11.130;2022-09-23T02:09:14;99689.72;;;15.86;59.01
50636;BME280;36598;46.054;11.130;2022-09-23T02:11:41;99689.19;;;15.91;59.23
50636;BME280;36598;46.054;11.130;2022-09-23T02:16:39;99689.44;;;15.80;59.77
50636;BME280;36598;46.054;11.130;2022-09-23T02:21:49;99686.69;;;15.64;59.84
50636;BME280;36598;46.054;11.130;2022-09-23T02:24:18;99689.19;;;15.58;60.26
50636;BME280;36598;46.054;11.130;2022-09-23T02:32:36;99681.06;;;15.80;59.65
50636;BME280;36598;46.054;11.130;2022-09-23T02:39:41;99671.94;;;15.63;59.89
50636;BME280;36598;46.054;11.130;2022-09-23T02:42:13;99678.66;;;15.66;59.97
50636;BME280;36598;46.054;11.130;2022-09-23T02:44:40;99677.03;;;15.68;59.77
50636;BME280;36598;46.054;11.130;2022-09-23T02:47:06;99676.06;;;15.42;60.10
50636;BME280;36598;46.054;11.130;2022-09-23T02:49:32;99674.72;;;15.63;59.53
50636;BME280;36598;46.054;11.130;2022-09-23T02:52:02;99675.44;;;15.51;59.13
50636;BME280;36598;46.054;11.130;2022-09-23T02:54:29;99680.84;;;15.42;58.90
50636;BME280;36598;46.054;11.130;2022-09-23T02:56:54;99678.06;;;15.25;59.11
50636;BME280;36598;46.054;11.130;2022-09-23T02:59:21;99678.28;;;15.15;59.87
50636;BME280;36598;46.054;11.130;2022-09-23T03:12:33;99669.94;;;15.15;58.97
50636;BME280;36598;46.054;11.130;2022-09-23T03:15:20;99666.63;;;15.20;59.08
50636;BME280;36598;46.054;11.130;2022-09-23T03:20:30;99672.72;;;15.31;60.29
50636;BME280;36598;46.054;11.130;2022-09-23T03:22:59;99666.97;;;15.22;61.11
50636;BME280;36598;46.054;11.130;2022-09-23T03:25:27;99665.75;;;15.07;61.08
50636;BME280;36598;46.054;11.130;2022-09-23T03:27:55;99670.84;;;14.75;61.94
50636;BME280;36598;46.054;11.130;2022-09-23T03:30:21;99666.22;;;14.69;62.24
50636;BME280;36598;46.054;11.130;2022-09-23T03:32:47;99670.50;;;14.73;62.04
50636;BME280;36598;46.054;11.130;2022-09-23T03:35:15;99674.25;;;14.83;62.26
50636;BME280;36598;46.054;11.130;2022-09-23T03:37:43;99666.22;;;14.85;62.24
50636;BME280;36598;46.054;11.130;2022-09-23T03:40:14;99672.06;;;14.74;62.76
50636;BME280;36598;46.054;11.130;2022-09-23T03:42:40;99665.31;;;15.08;61.51
50636;BME280;36598;46.054;11.130;2022-09-23T03:45:07;99666.78;;;14.96;61.38
50636;BME280;36598;46.054;11.130;2022-09-23T03:47:34;99659.94;;;15.17;60.41
50636;BME280;36598;46.054;11.130;2022-09-23T03:49:59;99670.63;;;15.02;60.16
50636;BME280;36598;46.054;11.130;2022-09-23T03:52:24;99664.88;;;15.10;59.67
50636;BME280;36598;46.054;11.130;2022-09-23T03:54:50;99662.69;;;15.01;59.76
50636;BME280;36598;46.054;11.130;2022-09-23T03:57:16;99660.50;;;14.92;59.54
50636;BME280;36598;46.054;11.130;2022-09-23T03:59:41;99658.75;;;14.98;59.04
50636;BME280;36598;46.054;11.130;2022-09-23T04:02:07;99658.22;;;14.51;60.36
50636;BME280;36598;46.054;11.130;2022-09-23T04:04:34;99665.31;;;14.92;59.08
50636;BME280;36598;46.054;11.130;2022-09-23T04:07:00;99664.59;;;14.88;58.89
50636;BME280;36598;46.054;11.130;2022-09-23T04:09:25;99669.75;;;15.06;58.87
50636;BME280;36598;46.054;11.130;2022-09-23T04:11:51;99665.66;;;15.10;59.17
50636;BME280;36598;46.054;11.130;2022-09-23T04:14:16;99659.47;;;14.86;60.01
50636;BME280;36598;46.054;11.130;2022-09-23T04:16:42;99664.63;;;15.04;59.77
50636;BME280;36598;46.054;11.130;2022-09-23T04:19:10;99659.88;;;14.85;60.16
50636;BME280;36598;46.054;11.130;2022-09-23T04:21:36;99656.53;;;15.10;60.30
50636;BME280;36598;46.054;11.130;2022-09-23T04:24:01;99663.94;;;15.16;61.13
50636;BME280;36598;46.054;11.130;2022-09-23T04:26:27;99663.75;;;15.23;61.67
50636;BME280;36598;46.054;11.130;2022-09-23T04:28:53;99654.84;;;15.28;61.08
50636;BME280;36598;46.054;11.130;2022-09-23T04:31:18;99651.56;;;15.17;59.49
50636;BME280;36598;46.054;11.130;2022-09-23T04:33:43;99655.56;;;15.00;58.80
50636;BME280;36598;46.054;11.130;2022-09-23T04:36:08;99649.78;;;14.74;59.02
50636;BME280;36598;46.054;11.130;2022-09-23T04:38:34;99659.53;;;14.83;58.62
50636;BME280;36598;46.054;11.130;2022-09-23T04:40:59;99651.72;;;14.94;58.17
50636;BME280;36598;46.054;11.130;2022-09-23T04:43:25;99655.66;;;15.13;57.88
50636;BME280;36598;46.054;11.130;2022-09-23T04:45:56;99654.44;;;15.14;58.00
50636;BME280;36598;46.054;11.130;2022-09-23T04:48:23;99650.59;;;15.08;57.83
50636;BME280;36598;46.054;11.130;2022-09-23T04:50:48;99653.28;;;15.11;57.89
50636;BME280;36598;46.054;11.130;2022-09-23T04:53:13;99654.59;;;15.07;58.12
50636;BME280;36598;46.054;11.130;2022-09-23T04:55:40;99661.06;;;15.03;57.96
50636;BME280;36598;46.054;11.130;2022-09-23T04:58:06;99658.53;;;15.09;58.50
50636;BME280;36598;46.054;11.130;2022-09-23T05:00:33;99659.47;;;15.19;58.28
50636;BME280;36598;46.054;11.130;2022-09-23T05:02:58;99660.25;;;15.03;58.45
50636;BME280;36598;46.054;11.130;2022-09-23T05:05:23;99658.44;;;15.13;58.20
50636;BME280;36598;46.054;11.130;2022-09-23T05:07:49;99663.06;;;15.19;57.46
50636;BME280;36598;46.054;11.130;2022-09-23T05:10:15;99670.00;;;15.11;57.87
50636;BME280;36598;46.054;11.130;2022-09-23T05:12:40;99665.41;;;15.05;57.98
50636;BME280;36598;46.054;11.130;2022-09-23T05:15:05;99668.91;;;15.09;57.55
50636;BME280;36598;46.054;11.130;2022-09-23T05:17:31;99663.13;;;14.99;57.55
50636;BME280;36598;46.054;11.130;2022-09-23T05:19:57;99676.78;;;14.94;57.78
50636;BME280;36598;46.054;11.130;2022-09-23T05:22:22;99670.56;;;15.22;57.29
50636;BME280;36598;46.054;11.130;2022-09-23T05:24:48;99670.38;;;15.13;57.46
50636;BME280;36598;46.054;11.130;2022-09-23T05:27:13;99669.84;;;15.02;57.75
50636;BME280;36598;46.054;11.130;2022-09-23T05:29:38;99667.16;;;15.15;57.84
50636;BME280;36598;46.054;11.130;2022-09-23T05:32:03;99673.34;;;15.22;57.22
50636;BME280;36598;46.054;11.130;2022-09-23T05:34:29;99672.72;;;15.15;56.44
50636;BME280;36598;46.054;11.130;2022-09-23T05:36:54;99673.88;;;15.17;56.40
50636;BME280;36598;46.054;11.130;2022-09-23T05:39:19;99675.88;;;15.17;57.59
50636;BME280;36598;46.054;11.130;2022-09-23T05:41:44;99674.44;;;14.92;59.37
50636;BME280;36598;46.054;11.130;2022-09-23T05:44:10;99677.16;;;14.96;59.93
50636;BME280;36598;46.054;11.130;2022-09-23T05:46:35;99680.25;;;14.82;59.96
50636;BME280;36598;46.054;11.130;2022-09-23T05:49:00;99677.16;;;14.96;59.67
50636;BME280;36598;46.054;11.130;2022-09-23T05:51:26;99682.50;;;14.70;60.22
50636;BME280;36598;46.054;11.130;2022-09-23T05:53:53;99674.88;;;14.91;59.90
50636;BME280;36598;46.054;11.130;2022-09-23T05:56:20;99680.81;;;15.09;59.45
50636;BME280;36598;46.054;11.130;2022-09-23T05:58:49;99682.38;;;15.10;59.82
50636;BME280;36598;46.054;11.130;2022-09-23T06:01:18;99682.97;;;15.01;59.64
50636;BME280;36598;46.054;11.130;2022-09-23T06:03:48;99676.97;;;15.03;58.70
50636;BME280;36598;46.054;11.130;2022-09-23T06:06:14;99674.28;;;14.99;59.16
50636;BME280;36598;46.054;11.130;2022-09-23T06:08:40;99667.25;;;15.27;57.88
50636;BME280;36598;46.054;11.130;2022-09-23T06:11:05;99675.88;;;15.33;57.42
50636;BME280;36598;46.054;11.130;2022-09-23T06:13:32;99677.88;;;15.16;58.02
50636;BME280;36598;46.054;11.130;2022-09-23T06:15:58;99678.94;;;15.39;57.45
50636;BME280;36598;46.054;11.130;2022-09-23T06:18:24;99676.03;;;15.26;56.51
50636;BME280;36598;46.054;11.130;2022-09-23T06:20:49;99681.72;;;15.39;56.21
50636;BME280;36598;46.054;11.130;2022-09-23T06:23:14;99675.16;;;15.45;56.12
50636;BME280;36598;46.054;11.130;2022-09-23T06:25:39;99684.75;;;15.61;55.23
50636;BME280;36598;46.054;11.130;2022-09-23T06:28:05;99685.63;;;15.58;55.09
50636;BME280;36598;46.054;11.130;2022-09-23T06:30:37;99677.69;;;15.40;54.85
50636;BME280;36598;46.054;11.130;2022-09-23T06:33:03;99681.88;;;15.32;55.21
50636;BME280;36598;46.054;11.130;2022-09-23T06:35:28;99680.84;;;15.42;55.04
50636;BME280;36598;46.054;11.130;2022-09-23T06:37:56;99677.94;;;15.62;53.76
50636;BME280;36598;46.054;11.130;2022-09-23T06:40:22;99679.88;;;15.48;53.95
50636;BME280;36598;46.054;11.130;2022-09-23T06:42:47;99679.63;;;15.59;54.33
50636;BME280;36598;46.054;11.130;2022-09-23T06:45:13;99679.63;;;15.59;54.14
50636;BME280;36598;46.054;11.130;2022-09-23T06:47:39;99676.75;;;15.46;54.06
50636;BME280;36598;46.054;11.130;2022-09-23T06:50:05;99677.88;;;15.65;53.95
50636;BME280;36598;46.054;11.130;2022-09-23T06:52:30;99669.31;;;15.89;53.79
50636;BME280;36598;46.054;11.130;2022-09-23T06:54:56;99672.78;;;15.93;53.75
50636;BME280;36598;46.054;11.130;2022-09-23T06:57:21;99668.38;;;16.08;53.67
50636;BME280;36598;46.054;11.130;2022-09-23T06:59:46;99673.81;;;16.28;53.30
50636;BME280;36598;46.054;11.130;2022-09-23T07:02:11;99674.91;;;16.31;53.04
50636;BME280;36598;46.054;11.130;2022-09-23T07:04:37;99676.22;;;16.13;53.33
50636;BME280;36598;46.054;11.130;2022-09-23T07:07:03;99666.63;;;16.27;53.52
50636;BME280;36598;46.054;11.130;2022-09-23T07:09:29;99672.25;;;15.98;53.23
50636;BME280;36598;46.054;11.130;2022-09-23T07:11:54;99674.25;;;16.26;51.80
50636;BME280;36598;46.054;11.130;2022-09-23T07:14:19;99681.19;;;16.06;53.04
50636;BME280;36598;46.054;11.130;2022-09-23T07:16:47;99670.56;;;16.30;52.63
50636;BME280;36598;46.054;11.130;2022-09-23T07:19:12;99681.31;;;16.44;52.67
50636;BME280;36598;46.054;11.130;2022-09-23T07:21:38;99670.50;;;16.46;52.25
50636;BME280;36598;46.054;11.130;2022-09-23T07:24:03;99679.72;;;16.30;52.41
50636;BME280;36598;46.054;11.130;2022-09-23T07:26:29;99680.66;;;16.40;52.23
50636;BME280;36598;46.054;11.130;2022-09-23T07:28:58;99678.47;;;16.60;52.01
50636;BME280;36598;46.054;11.130;2022-09-23T07:31:28;99682.13;;;16.57;52.40
50636;BME280;36598;46.054;11.130;2022-09-23T07:33:54;99692.63;;;16.95;50.96
50636;BME280;36598;46.054;11.130;2022-09-23T07:36:20;99682.56;;;17.10;50.73
50636;BME280;36598;46.054;11.130;2022-09-23T07:38:45;99684.13;;;16.86;51.43
50636;BME280;36598;46.054;11.130;2022-09-23T07:41:12;99686.78;;;17.53;49.87
50636;BME280;36598;46.054;11.130;2022-09-23T07:43:38;99691.16;;;17.03;50.86
50636;BME280;36598;46.054;11.130;2022-09-23T07:46:05;99688.25;;;17.45;50.01
50636;BME280;36598;46.054;11.130;2022-09-23T07:48:32;99688.81;;;17.40;49.90
50636;BME280;36598;46.054;11.130;2022-09-23T07:50:58;99688.03;;;17.39;50.50
50636;BME280;36598;46.054;11.130;2022-09-23T07:53:24;99687.97;;;18.12;48.28
50636;BME280;36598;46.054;11.130;2022-09-23T07:55:56;99684.84;;;18.10;47.67
50636;BME280;36598;46.054;11.130;2022-09-23T07:58:21;99682.81;;;18.33;47.48
50636;BME280;36598;46.054;11.130;2022-09-23T08:00:47;99683.66;;;18.64;47.15
50636;BME280;36598;46.054;11.130;2022-09-23T08:03:15;99676.34;;;18.89;45.51
50636;BME280;36598;46.054;11.130;2022-09-23T08:05:40;99682.00;;;18.98;45.20
50636;BME280;36598;46.054;11.130;2022-09-23T08:08:05;99676.63;;;19.90;42.92
50636;BME280;36598;46.054;11.130;2022-09-23T08:10:31;99669.59;;;20.49;41.84
50636;BME280;36598;46.054;11.130;2022-09-23T08:12:57;99674.56;;;21.72;38.99
50636;BME280;36598;46.054;11.130;2022-09-23T08:15:22;99677.31;;;22.74;36.80
50636;BME280;36598;46.054;11.130;2022-09-23T08:17:47;99670.41;;;22.90;36.63
50636;BME280;36598;46.054;11.130;2022-09-23T08:20:13;99664.25;;;23.41;35.64
50636;BME280;36598;46.054;11.130;2022-09-23T08:22:58;99667.47;;;22.40;36.57
50636;BME280;36598;46.054;11.130;2022-09-23T08:25:23;99656.16;;;24.36;33.89
50636;BME280;36598;46.054;11.130;2022-09-23T08:27:49;99657.81;;;24.74;32.98
50636;BME280;36598;46.054;11.130;2022-09-23T08:30:14;99664.34;;;24.55;32.93
50636;BME280;36598;46.054;11.130;2022-09-23T08:32:40;99661.38;;;24.17;34.02
50636;BME280;36598;46.054;11.130;2022-09-23T08:35:05;99659.38;;;24.23;34.06
50636;BME280;36598;46.054;11.130;2022-09-23T08:37:30;99659.84;;;24.68;33.22
50636;BME280;36598;46.054;11.130;2022-09-23T08:39:56;99660.25;;;23.89;33.99
50636;BME280;36598;46.054;11.130;2022-09-23T08:42:23;99654.00;;;23.79;34.31
50636;BME280;36598;46.054;11.130;2022-09-23T08:44:53;99654.25;;;24.48;34.13
50636;BME280;36598;46.054;11.130;2022-09-23T08:52:30;99653.09;;;24.14;34.04
50636;BME280;36598;46.054;11.130;2022-09-23T08:54:58;99653.59;;;27.37;29.66
50636;BME280;36598;46.054;11.130;2022-09-23T08:57:48;99642.16;;;30.81;24.61
50636;BME280;36598;46.054;11.130;2022-09-23T09:00:13;99639.09;;;32.59;21.89
50636;BME280;36598;46.054;11.130;2022-09-23T09:02:40;99640.09;;;34.56;20.05
50636;BME280;36598;46.054;11.130;2022-09-23T09:05:06;99632.06;;;34.03;19.82
50636;BME280;36598;46.054;11.130;2022-09-23T09:07:33;99634.81;;;30.35;24.44
50636;BME280;36598;46.054;11.130;2022-09-23T09:12:38;99646.38;;;26.80;28.73
50636;BME280;36598;46.054;11.130;2022-09-23T09:17:37;99633.63;;;24.42;31.86
50636;BME280;36598;46.054;11.130;2022-09-23T09:25:23;99632.25;;;22.94;35.06
50636;BME280;36598;46.054;11.130;2022-09-23T09:27:49;99622.31;;;22.10;36.37
50636;BME280;36598;46.054;11.130;2022-09-23T09:30:15;99623.50;;;22.48;35.87
50636;BME280;36598;46.054;11.130;2022-09-23T09:32:47;99619.94;;;23.12;34.88
50636;BME280;36598;46.054;11.130;2022-09-23T09:37:57;99621.97;;;22.91;35.47
50636;BME280;36598;46.054;11.130;2022-09-23T09:40:22;99612.44;;;22.74;36.17
50636;BME280;36598;46.054;11.130;2022-09-23T09:42:48;99607.03;;;23.06;35.74
50636;BME280;36598;46.054;11.130;2022-09-23T09:45:15;99605.16;;;22.38;36.38
50636;BME280;36598;46.054;11.130;2022-09-23T09:50:12;99607.63;;;22.80;35.39
50636;BME280;36598;46.054;11.130;2022-09-23T09:52:45;99603.28;;;22.64;35.57
50636;BME280;36598;46.054;11.130;2022-09-23T10:00:17;99588.41;;;23.14;36.14
50636;BME280;36598;46.054;11.130;2022-09-23T10:02:43;99590.22;;;22.96;35.83
50636;BME280;36598;46.054;11.130;2022-09-23T10:05:22;99585.03;;;24.75;33.15
50636;BME280;36598;46.054;11.130;2022-09-23T10:07:48;99588.06;;;26.39;30.94
50636;BME280;36598;46.054;11.130;2022-09-23T10:10:18;99580.78;;;27.23;28.68
50636;BME280;36598;46.054;11.130;2022-09-23T10:12:45;99582.16;;;27.74;27.15
50636;BME280;36598;46.054;11.130;2022-09-23T10:15:41;99567.25;;;27.51;27.28
50636;BME280;36598;46.054;11.130;2022-09-23T10:17:58;99578.25;;;29.14;25.13
50636;BME280;36598;46.054;11.130;2022-09-23T10:20:33;99566.84;;;28.60;26.44
50636;BME280;36598;46.054;11.130;2022-09-23T10:23:06;99565.34;;;28.53;25.50
50636;BME280;36598;46.054;11.130;2022-09-23T10:25:32;99560.72;;;28.50;25.88
50636;BME280;36598;46.054;11.130;2022-09-23T10:28:02;99557.72;;;29.22;24.92
50636;BME280;36598;46.054;11.130;2022-09-23T10:30:44;99561.81;;;29.02;26.31
50636;BME280;36598;46.054;11.130;2022-09-23T10:33:27;99555.66;;;28.92;26.50
50636;BME280;36598;46.054;11.130;2022-09-23T10:35:53;99546.47;;;28.80;25.91
50636;BME280;36598;46.054;11.130;2022-09-23T10:38:21;99547.69;;;28.60;25.06
50636;BME280;36598;46.054;11.130;2022-09-23T10:40:46;99542.19;;;28.92;24.52
50636;BME280;36598;46.054;11.130;2022-09-23T11:00:02;99532.25;;;28.50;24.79
50636;BME280;36598;46.054;11.130;2022-09-23T11:07:46;99524.38;;;28.62;25.45
50636;BME280;36598;46.054;11.130;2022-09-23T11:13:07;99515.31;;;26.59;27.03
50636;BME280;36598;46.054;11.130;2022-09-23T11:15:51;99513.09;;;27.27;26.14
50636;BME280;36598;46.054;11.130;2022-09-23T11:18:35;99500.47;;;27.75;26.30
50636;BME280;36598;46.054;11.130;2022-09-23T11:21:22;99491.06;;;27.44;26.35
50636;BME280;36598;46.054;11.130;2022-09-23T11:39:48;99460.56;;;26.81;27.62
50636;BME280;36598;46.054;11.130;2022-09-23T11:41:53;99453.63;;;26.70;26.68
50636;BME280;36598;46.054;11.130;2022-09-23T11:44:25;99452.09;;;26.69;25.42
50636;BME280;36598;46.054;11.130;2022-09-23T11:47:03;99449.06;;;26.34;27.28
50636;BME280;36598;46.054;11.130;2022-09-23T11:49:34;99450.06;;;26.64;26.50
50636;BME280;36598;46.054;11.130;2022-09-23T11:52:10;99439.00;;;26.16;26.94
50636;BME280;36598;46.054;11.130;2022-09-23T12:00:00;99433.84;;;26.03;26.93
50636;BME280;36598;46.054;11.130;2022-09-23T12:02:35;99435.84;;;25.41;27.38
50636;BME280;36598;46.054;11.130;2022-09-23T12:05:09;99429.88;;;25.28;27.56
50636;BME280;36598;46.054;11.130;2022-09-23T12:10:07;99415.22;;;25.23;28.76
50636;BME280;36598;46.054;11.130;2022-09-23T12:12:35;99413.94;;;24.70;28.54
50636;BME280;36598;46.054;11.130;2022-09-23T12:20:49;99404.69;;;23.90;29.90
50636;BME280;36598;46.054;11.130;2022-09-23T12:25:56;99397.91;;;24.13;29.82
50636;BME280;36598;46.054;11.130;2022-09-23T12:28:26;99397.31;;;24.41;29.59
50636;BME280;36598;46.054;11.130;2022-09-23T12:30:55;99393.63;;;23.60;30.26
50636;BME280;36598;46.054;11.130;2022-09-23T12:33:28;99377.31;;;23.49;30.37
50636;BME280;36598;46.054;11.130;2022-09-23T12:40:59;99372.13;;;21.99;32.47
50636;BME280;36598;46.054;11.130;2022-09-23T12:45:54;99365.69;;;22.49;31.88
50636;BME280;36598;46.054;11.130;2022-09-23T12:55:55;99344.38;;;23.98;31.08
50636;BME280;36598;46.054;11.130;2022-09-23T12:58:36;99338.91;;;23.63;30.79
50636;BME280;36598;46.054;11.130;2022-09-23T13:01:05;99344.75;;;23.22;31.06
50636;BME280;36598;46.054;11.130;2022-09-23T13:03:31;99337.31;;;22.99;31.16
50636;BME280;36598;46.054;11.130;2022-09-23T13:06:16;99334.88;;;23.12;31.17
50636;BME280;36598;46.054;11.130;2022-09-23T13:09:01;99327.28;;;22.98;31.08
50636;BME280;36598;46.054;11.130;2022-09-23T13:11:29;99323.56;;;23.12;31.25
50636;BME280;36598;46.054;11.130;2022-09-23T13:13:57;99320.53;;;22.69;30.83
50636;BME280;36598;46.054;11.130;2022-09-23T13:19:07;99319.13;;;23.00;30.84
50636;BME280;36598;46.054;11.130;2022-09-23T13:26:50;99304.50;;;23.28;30.45
50636;BME280;36598;46.054;11.130;2022-09-23T13:29:26;99307.91;;;22.85;31.02
50636;BME280;36598;46.054;11.130;2022-09-23T13:31:56;99311.13;;;22.32;31.96
50636;BME280;36598;46.054;11.130;2022-09-23T13:34:22;99303.66;;;22.29;32.54
50636;BME280;36598;46.054;11.130;2022-09-23T13:36:48;99297.50;;;22.30;31.97
50636;BME280;36598;46.054;11.130;2022-09-23T13:39:14;99300.53;;;22.47;32.64
50636;BME280;36598;46.054;11.130;2022-09-23T13:41:41;99290.41;;;21.99;32.80
50636;BME280;36598;46.054;11.130;2022-09-23T13:44:08;99291.75;;;22.19;33.14
50636;BME280;36598;46.054;11.130;2022-09-23T13:46:42;99285.50;;;21.44;33.47
50636;BME280;36598;46.054;11.130;2022-09-23T13:51:50;99282.66;;;21.94;33.72
50636;BME280;36598;46.054;11.130;2022-09-23T13:56:53;99276.25;;;21.94;32.99
50636;BME280;36598;46.054;11.130;2022-09-23T14:01:47;99264.34;;;22.19;33.15
50636;BME280;36598;46.054;11.130;2022-09-23T14:04:22;99269.84;;;21.93;33.11
50636;BME280;36598;46.054;11.130;2022-09-23T14:06:48;99262.00;;;21.83;33.56
50636;BME280;36598;46.054;11.130;2022-09-23T14:09:13;99260.69;;;21.98;33.40
50636;BME280;36598;46.054;11.130;2022-09-23T14:11:39;99257.84;;;22.13;32.87
50636;BME280;36598;46.054;11.130;2022-09-23T14:14:05;99247.84;;;22.12;32.61
50636;BME280;36598;46.054;11.130;2022-09-23T14:16:32;99245.81;;;21.78;33.55
50636;BME280;36598;46.054;11.130;2022-09-23T14:19:00;99252.66;;;21.56;33.44
50636;BME280;36598;46.054;11.130;2022-09-23T14:21:35;99256.13;;;21.66;33.95
50636;BME280;36598;46.054;11.130;2022-09-23T14:26:32;99253.56;;;21.47;33.92
50636;BME280;36598;46.054;11.130;2022-09-23T14:28:58;99249.28;;;21.52;34.38
50636;BME280;36598;46.054;11.130;2022-09-23T14:31:23;99249.47;;;21.84;34.21
50636;BME280;36598;46.054;11.130;2022-09-23T14:33:49;99245.53;;;21.75;33.97
50636;BME280;36598;46.054;11.130;2022-09-23T14:36:15;99249.22;;;21.67;34.30
50636;BME280;36598;46.054;11.130;2022-09-23T14:39:03;99243.88;;;21.34;34.73
50636;BME280;36598;46.054;11.130;2022-09-23T14:41:32;99251.06;;;21.35;35.19
50636;BME280;36598;46.054;11.130;2022-09-23T14:43:59;99240.88;;;21.37;35.43
50636;BME280;36598;46.054;11.130;2022-09-23T14:46:27;99241.44;;;21.41;35.22
50636;BME280;36598;46.054;11.130;2022-09-23T14:48:55;99246.69;;;21.34;35.34
50636;BME280;36598;46.054;11.130;2022-09-23T14:51:21;99235.22;;;21.22;35.56
50636;BME280;36598;46.054;11.130;2022-09-23T14:53:53;99246.47;;;21.22;35.89
50636;BME280;36598;46.054;11.130;2022-09-23T14:56:19;99228.66;;;20.96;36.48
50636;BME280;36598;46.054;11.130;2022-09-23T14:58:46;99231.44;;;21.25;36.00
50636;BME280;36598;46.054;11.130;2022-09-23T15:03:57;99233.28;;;21.14;36.64
50636;BME280;36598;46.054;11.130;2022-09-23T15:06:23;99228.16;;;21.12;36.42
50636;BME280;36598;46.054;11.130;2022-09-23T15:08:53;99230.94;;;20.68;37.30
50636;BME280;36598;46.054;11.130;2022-09-23T15:11:20;99236.97;;;21.05;36.90
50636;BME280;36598;46.054;11.130;2022-09-23T15:13:47;99231.72;;;21.27;36.75
50636;BME280;36598;46.054;11.130;2022-09-23T15:16:14;99238.16;;;21.13;36.47
50636;BME280;36598;46.054;11.130;2022-09-23T15:18:41;99232.72;;;20.80;36.67
50636;BME280;36598;46.054;11.130;2022-09-23T15:21:08;99239.88;;;21.11;36.55
50636;BME280;36598;46.054;11.130;2022-09-23T15:28:43;99236.22;;;21.34;36.98
50636;BME280;36598;46.054;11.130;2022-09-23T15:31:15;99238.53;;;20.91;37.35
50636;BME280;36598;46.054;11.130;2022-09-23T15:33:48;99244.94;;;21.07;37.57
50636;BME280;36598;46.054;11.130;2022-09-23T15:36:17;99246.66;;;21.19;37.60
50636;BME280;36598;46.054;11.130;2022-09-23T15:38:43;99244.94;;;21.21;38.20
50636;BME280;36598;46.054;11.130;2022-09-23T15:41:10;99245.03;;;20.83;38.57
50636;BME280;36598;46.054;11.130;2022-09-23T15:43:35;99245.22;;;20.79;38.66
50636;BME280;36598;46.054;11.130;2022-09-23T15:46:05;99238.53;;;20.62;38.79